createdAt,value
2018-04-18T00:04:51.243Z,7.62
2018-04-18T00:09:55.580Z,8.20
2018-04-18T00:14:59.369Z,8.68
2018-04-18T00:20:03.194Z,7.65
2018-04-18T00:25:06.292Z,7.70
2018-04-18T00:30:09.100Z,7.50
2018-04-18T00:35:13.388Z,7.40
2018-04-18T00:40:16.545Z,7.57
2018-04-18T00:45:20.094Z,7.20
2018-04-18T00:50:22.918Z,8.10
2018-04-18T00:55:29.028Z,7.70
2018-04-18T01:00:33.642Z,8.63
2018-04-18T01:05:36.540Z,8.20
2018-04-18T01:10:39.619Z,8.00
2018-04-18T01:15:42.439Z,8.20
2018-04-18T01:20:45.215Z,7.47
2018-04-18T01:25:48.845Z,7.80
2018-04-18T01:30:52.714Z,7.80
2018-04-18T01:35:56.380Z,8.40
2018-04-18T01:40:59.782Z,7.93
2018-04-18T01:46:02.826Z,7.95
2018-04-18T01:51:06.408Z,9.40
2018-04-18T01:56:09.220Z,8.00
2018-04-18T02:01:12.057Z,9.25
2018-04-18T02:06:15.767Z,9.20
2018-04-18T02:11:20.189Z,9.63
2018-04-18T02:16:23.304Z,10.27
2018-04-18T02:21:29.551Z,9.70
2018-04-18T02:26:32.869Z,8.23
2018-04-18T02:31:35.852Z,10.50
2018-04-18T02:36:39.205Z,8.83
2018-04-18T02:41:42.562Z,8.57
2018-04-18T02:46:46.441Z,9.30
2018-04-18T02:51:49.460Z,8.70
2018-04-18T02:56:54.227Z,8.83
2018-04-18T03:01:58.343Z,10.25
2018-04-18T03:07:01.896Z,9.87
2018-04-18T03:12:04.727Z,9.80
2018-04-18T03:17:07.555Z,11.45
2018-04-18T03:22:10.872Z,11.02
2018-04-18T03:27:14.643Z,10.00
2018-04-18T03:32:19.318Z,10.23
2018-04-18T03:37:22.229Z,10.80
2018-04-18T03:42:25.010Z,11.10
2018-04-18T03:47:28.740Z,11.80
2018-04-18T03:52:32.885Z,10.50
2018-04-18T03:57:35.761Z,10.48
2018-04-18T04:02:39.070Z,10.10
2018-04-18T04:07:42.784Z,9.77
2018-04-18T04:12:45.618Z,11.60
2018-04-18T04:18:00.448Z,9.40
2018-04-18T04:23:15.058Z,9.27
2018-04-18T04:28:17.897Z,9.90
2018-04-18T04:33:21.457Z,9.43
2018-04-18T04:38:24.246Z,9.75
2018-04-18T04:43:27.028Z,9.73
2018-04-18T04:48:29.825Z,9.75
2018-04-18T04:53:32.648Z,9.93
2018-04-18T04:58:35.622Z,9.50
2018-04-18T05:03:38.399Z,9.10
2018-04-18T05:08:42.081Z,9.93
2018-04-18T05:13:44.898Z,11.20
2018-04-18T05:18:47.704Z,8.75
2018-04-18T05:23:50.572Z,9.67
2018-04-18T05:28:53.407Z,9.75
2018-04-18T05:33:56.200Z,10.35
2018-04-18T05:38:58.992Z,10.00
2018-04-18T05:44:01.790Z,9.35
2018-04-18T05:49:04.590Z,11.32
2018-04-18T05:54:08.024Z,11.23
2018-04-18T05:59:11.487Z,14.37
2018-04-18T06:04:14.307Z,13.97
2018-04-18T06:09:17.659Z,13.68
2018-04-18T06:14:23.050Z,12.10
2018-04-18T06:19:26.884Z,13.10
2018-04-18T06:24:29.725Z,10.80
2018-04-18T06:29:33.298Z,9.60
2018-04-18T06:34:36.110Z,9.90
2018-04-18T06:39:38.938Z,10.93
2018-04-18T06:44:41.739Z,11.27
2018-04-18T06:49:44.536Z,9.37
2018-04-18T06:54:47.335Z,7.60
2018-04-18T06:59:50.123Z,6.60
2018-04-18T07:04:52.911Z,6.00
2018-04-18T07:09:55.740Z,5.90
2018-04-18T07:14:58.821Z,5.95
2018-04-18T07:20:01.599Z,5.85
2018-04-18T07:25:04.410Z,5.53
2018-04-18T07:30:07.226Z,5.30
2018-04-18T07:35:10.020Z,5.20
2018-04-18T07:40:12.816Z,5.45
2018-04-18T07:45:15.704Z,5.15
2018-04-18T07:50:18.486Z,5.05
2018-04-18T07:55:21.289Z,5.20
2018-04-18T08:00:24.152Z,5.30
2018-04-18T08:05:26.952Z,4.90
2018-04-18T08:10:30.611Z,4.93
2018-04-18T08:15:33.556Z,5.47
2018-04-18T08:20:36.409Z,5.68
2018-04-18T08:25:39.216Z,5.20
2018-04-18T08:30:42.769Z,5.30
2018-04-18T08:35:45.580Z,5.43
2018-04-18T08:40:48.414Z,5.80
2018-04-18T08:45:53.571Z,5.37
2018-04-18T08:50:57.029Z,6.20
2018-04-18T08:56:02.072Z,7.60
2018-04-18T09:01:05.844Z,6.50
2018-04-18T09:06:08.843Z,6.70
2018-04-18T09:11:11.654Z,6.32
2018-04-18T09:16:14.458Z,6.80
2018-04-18T09:21:17.839Z,6.80
2018-04-18T09:26:21.397Z,6.75
2018-04-18T09:31:24.170Z,6.28
2018-04-18T09:36:26.965Z,6.03
2018-04-18T09:41:29.746Z,6.87
2018-04-18T09:46:33.298Z,6.07
2018-04-18T09:51:36.115Z,6.47
2018-04-18T09:56:38.900Z,5.50
2018-04-18T10:01:42.621Z,5.97
2018-04-18T10:06:45.384Z,7.60
2018-04-18T10:11:48.931Z,7.50
2018-04-18T10:16:51.702Z,6.83
2018-04-18T10:21:55.261Z,7.70
2018-04-18T10:26:58.054Z,7.20
2018-04-18T10:32:00.856Z,6.22
2018-04-18T10:37:03.735Z,6.28
2018-04-18T10:42:06.719Z,5.20
2018-04-18T10:47:10.369Z,4.55
2018-04-18T10:52:13.282Z,4.20
2018-04-18T10:57:17.253Z,4.50
2018-04-18T11:02:20.310Z,4.50
2018-04-18T11:07:23.169Z,4.10
2018-04-18T11:12:26.735Z,3.70
2018-04-18T11:17:29.552Z,4.37
2018-04-18T11:22:32.483Z,4.10
2018-04-18T11:27:35.354Z,3.85
2018-04-18T11:32:38.529Z,3.60
2018-04-18T11:37:42.164Z,4.20
2018-04-18T11:42:45.035Z,3.90
2018-04-18T11:47:48.578Z,3.65
2018-04-18T11:52:51.346Z,4.30
2018-04-18T11:57:55.888Z,3.70
2018-04-18T12:02:59.886Z,4.03
2018-04-18T12:08:02.761Z,3.30
2018-04-18T12:13:06.091Z,3.80
2018-04-18T12:18:08.879Z,3.70
2018-04-18T12:23:12.316Z,3.67
2018-04-18T12:28:15.190Z,4.20
2018-04-18T12:33:17.998Z,3.50
2018-04-18T12:38:20.773Z,3.70
2018-04-18T12:43:23.619Z,3.20
2018-04-18T12:48:26.410Z,3.37
2018-04-18T12:53:29.219Z,3.40
2018-04-18T12:58:32.049Z,3.00
2018-04-18T13:03:35.630Z,3.10
2018-04-18T13:08:38.441Z,3.00
2018-04-18T13:13:41.267Z,2.90
2018-04-18T13:18:45.215Z,2.80
2018-04-18T13:23:48.002Z,2.95
2018-04-18T13:28:50.809Z,2.70
2018-04-18T13:33:53.596Z,2.45
2018-04-18T13:38:57.159Z,2.40
2018-04-18T13:44:00.035Z,2.80
2018-04-18T13:49:02.908Z,2.77
2018-04-18T13:54:06.542Z,2.50
2018-04-18T13:59:09.420Z,2.20
2018-04-18T14:04:12.982Z,2.60
2018-04-18T14:09:15.766Z,2.30
2018-04-18T14:14:18.559Z,3.10
2018-04-18T14:19:21.351Z,2.08
2018-04-18T14:24:24.918Z,2.00
2018-04-18T14:29:27.701Z,2.50
2018-04-18T14:34:30.500Z,2.30
2018-04-18T14:39:33.280Z,2.00
2018-04-18T14:44:36.086Z,2.30
2018-04-18T14:49:38.970Z,2.20
2018-04-18T14:54:41.867Z,2.30
2018-04-18T14:59:47.142Z,2.28
2018-04-18T15:04:51.313Z,2.20
2018-04-18T15:09:54.434Z,2.10
2018-04-18T15:14:58.967Z,2.50
2018-04-18T15:20:01.805Z,2.05
2018-04-18T15:25:04.647Z,2.40
2018-04-18T15:30:09.106Z,2.25
2018-04-18T15:35:12.175Z,2.20
2018-04-18T15:40:15.910Z,2.40
2018-04-18T15:45:18.705Z,2.37
2018-04-18T15:50:21.606Z,2.35
2018-04-18T15:55:24.399Z,2.70
2018-04-18T16:00:27.201Z,2.00
2018-04-18T16:05:30.099Z,2.23
2018-04-18T16:10:32.898Z,2.20
2018-04-18T16:15:35.683Z,2.80
2018-04-18T16:20:38.483Z,2.12
2018-04-18T16:25:41.276Z,2.10
2018-04-18T16:30:44.087Z,2.10
2018-04-18T16:35:46.897Z,1.90
2018-04-18T16:40:49.670Z,2.10
2018-04-18T16:45:53.210Z,2.00
2018-04-18T16:50:55.999Z,2.10
2018-04-18T16:55:58.798Z,2.20
2018-04-18T17:01:01.594Z,2.30
2018-04-18T17:06:04.428Z,2.00
2018-04-18T17:11:07.275Z,2.30
2018-04-18T17:16:10.827Z,2.30
2018-04-18T17:21:13.629Z,2.53
2018-04-18T17:26:16.445Z,2.80
2018-04-18T17:31:19.302Z,2.83
2018-04-18T17:36:22.855Z,2.70
2018-04-18T17:41:25.638Z,3.00
2018-04-18T17:46:28.437Z,3.20
2018-04-18T17:51:31.246Z,4.60
2018-04-18T17:56:34.144Z,3.47
2018-04-18T18:01:36.944Z,3.00
2018-04-18T18:06:39.872Z,2.60
2018-04-18T18:11:43.390Z,2.80
2018-04-18T18:16:46.192Z,2.65
2018-04-18T18:21:50.628Z,3.00
2018-04-18T18:26:54.128Z,2.40
2018-04-18T18:31:59.386Z,3.97
2018-04-18T18:37:05.571Z,4.60
2018-04-18T18:42:09.421Z,3.80
2018-04-18T18:47:12.351Z,4.72
2018-04-18T18:52:17.044Z,5.07
2018-04-18T18:57:21.880Z,4.33
2018-04-18T19:02:25.607Z,3.70
2018-04-18T19:07:29.431Z,3.90
2018-04-18T19:12:33.349Z,5.60
2018-04-18T19:17:36.303Z,7.00
2018-04-18T19:22:39.937Z,11.43
2018-04-18T19:27:43.000Z,10.85
2018-04-18T19:32:45.809Z,8.40
2018-04-18T19:37:48.649Z,8.50
2018-04-18T19:42:52.341Z,8.38
2018-04-18T19:47:55.935Z,8.00
2018-04-18T19:52:59.327Z,7.78
2018-04-18T19:58:03.460Z,8.10
2018-04-18T20:03:06.333Z,7.70
2018-04-18T20:08:09.157Z,8.15
2018-04-18T20:13:14.872Z,7.60
2018-04-18T20:18:18.559Z,7.28
2018-04-18T20:23:21.379Z,6.20
2018-04-18T20:28:24.569Z,5.43
2018-04-18T20:33:28.166Z,5.00
2018-04-18T20:38:30.969Z,4.70
2018-04-18T20:43:34.549Z,6.70
2018-04-18T20:48:38.091Z,5.50
2018-04-18T20:53:40.944Z,6.70
2018-04-18T20:58:44.165Z,5.90
2018-04-18T21:03:46.976Z,5.70
2018-04-18T21:08:50.553Z,6.27
2018-04-18T21:13:53.328Z,7.35
2018-04-18T21:18:56.142Z,11.00
2018-04-18T21:23:58.953Z,8.93
2018-04-18T21:29:01.831Z,6.60
2018-04-18T21:34:04.965Z,6.00
2018-04-18T21:39:08.053Z,5.85
2018-04-18T21:44:10.934Z,6.00
2018-04-18T21:49:13.998Z,5.43
2018-04-18T21:54:17.553Z,5.70
2018-04-18T21:59:24.807Z,5.80
2018-04-18T22:04:27.631Z,7.43
2018-04-18T22:09:31.816Z,7.00
2018-04-18T22:14:34.632Z,6.00
2018-04-18T22:19:40.135Z,5.80
2018-04-18T22:24:47.838Z,5.50
2018-04-18T22:29:50.908Z,5.43
2018-04-18T22:34:54.668Z,5.55
2018-04-18T22:40:00.067Z,6.80
2018-04-18T22:45:03.727Z,5.90
2018-04-18T22:50:07.461Z,5.72
2018-04-18T22:55:10.780Z,6.32
2018-04-18T23:00:21.246Z,7.00
2018-04-18T23:05:24.520Z,6.68
2018-04-18T23:10:27.310Z,6.40
2018-04-18T23:15:30.547Z,6.90
2018-04-18T23:20:33.475Z,6.80
2018-04-18T23:25:37.276Z,7.18
2018-04-18T23:30:40.581Z,7.12
2018-04-18T23:35:44.204Z,6.90
2018-04-18T23:40:47.518Z,6.50
2018-04-18T23:45:50.805Z,6.78
2018-04-18T23:50:55.390Z,6.90
2018-04-18T23:56:03.215Z,6.17
